sensor_id;sensor_type;location;lat;lon;timestamp;P1;durP1;ratioP1;P2;durP2;ratioP2
60847;SDS011;46681;47.696;9.140;2023-07-13T00:01:57;3.17;;;2.37;;
60847;SDS011;46681;47.696;9.140;2023-07-13T00:04:24;2.63;;;2.43;;
60847;SDS011;46681;47.696;9.140;2023-07-13T00:06:53;3.20;;;2.40;;
60847;SDS011;46681;47.696;9.140;2023-07-13T00:09:19;3.27;;;2.63;;
60847;SDS011;46681;47.696;9.140;2023-07-13T00:11:50;2.53;;;2.33;;
60847;SDS011;46681;47.696;9.140;2023-07-13T00:14:20;2.50;;;2.30;;
60847;SDS011;46681;47.696;9.140;2023-07-13T00:16:48;2.60;;;2.07;;
60847;SDS011;46681;47.696;9.140;2023-07-13T00:19:14;2.57;;;2.37;;
60847;SDS011;46681;47.696;9.140;2023-07-13T00:21:40;2.50;;;2.30;;
60847;SDS011;46681;47.696;9.140;2023-07-13T00:24:06;2.90;;;2.60;;
60847;SDS011;46681;47.696;9.140;2023-07-13T00:26:35;2.33;;;2.23;;
60847;SDS011;46681;47.696;9.140;2023-07-13T00:29:00;2.40;;;2.13;;
60847;SDS011;46681;47.696;9.140;2023-07-13T00:31:26;2.53;;;2.33;;
60847;SDS011;46681;47.696;9.140;2023-07-13T00:33:51;2.67;;;2.23;;
60847;SDS011;46681;47.696;9.140;2023-07-13T00:36:17;3.23;;;2.77;;
60847;SDS011;46681;47.696;9.140;2023-07-13T00:38:42;2.50;;;2.30;;
60847;SDS011;46681;47.696;9.140;2023-07-13T00:41:09;2.60;;;2.40;;
60847;SDS011;46681;47.696;9.140;2023-07-13T00:43:38;2.47;;;2.30;;
60847;SDS011;46681;47.696;9.140;2023-07-13T00:46:19;2.60;;;2.40;;
60847;SDS011;46681;47.696;9.140;2023-07-13T00:48:49;3.73;;;2.57;;
60847;SDS011;46681;47.696;9.140;2023-07-13T00:51:19;2.93;;;2.20;;
60847;SDS011;46681;47.696;9.140;2023-07-13T00:53:48;2.50;;;2.30;;
60847;SDS011;46681;47.696;9.140;2023-07-13T00:56:15;2.90;;;2.47;;
60847;SDS011;46681;47.696;9.140;2023-07-13T00:58:41;2.67;;;2.43;;
60847;SDS011;46681;47.696;9.140;2023-07-13T01:01:07;2.30;;;2.10;;
60847;SDS011;46681;47.696;9.140;2023-07-13T01:03:33;2.73;;;2.53;;
60847;SDS011;46681;47.696;9.140;2023-07-13T01:06:04;2.40;;;2.20;;
60847;SDS011;46681;47.696;9.140;2023-07-13T01:08:33;2.80;;;2.13;;
60847;SDS011;46681;47.696;9.140;2023-07-13T01:10:58;2.93;;;2.13;;
60847;SDS011;46681;47.696;9.140;2023-07-13T01:13:24;2.87;;;2.13;;
60847;SDS011;46681;47.696;9.140;2023-07-13T01:15:50;2.63;;;2.40;;
60847;SDS011;46681;47.696;9.140;2023-07-13T01:18:17;2.60;;;2.07;;
60847;SDS011;46681;47.696;9.140;2023-07-13T01:20:58;2.60;;;2.20;;
60847;SDS011;46681;47.696;9.140;2023-07-13T01:23:26;2.70;;;2.50;;
60847;SDS011;46681;47.696;9.140;2023-07-13T01:25:52;2.60;;;2.40;;
60847;SDS011;46681;47.696;9.140;2023-07-13T01:28:18;2.43;;;2.23;;
60847;SDS011;46681;47.696;9.140;2023-07-13T01:30:44;4.30;;;2.50;;
60847;SDS011;46681;47.696;9.140;2023-07-13T01:33:14;2.20;;;2.00;;
60847;SDS011;46681;47.696;9.140;2023-07-13T01:35:44;3.90;;;2.70;;
60847;SDS011;46681;47.696;9.140;2023-07-13T01:38:15;4.23;;;2.57;;
60847;SDS011;46681;47.696;9.140;2023-07-13T01:40:42;2.47;;;2.20;;
60847;SDS011;46681;47.696;9.140;2023-07-13T01:43:08;2.60;;;2.10;;
60847;SDS011;46681;47.696;9.140;2023-07-13T01:45:34;2.80;;;2.60;;
60847;SDS011;46681;47.696;9.140;2023-07-13T01:48:00;2.00;;;1.90;;
60847;SDS011;46681;47.696;9.140;2023-07-13T01:50:27;2.30;;;1.93;;
60847;SDS011;46681;47.696;9.140;2023-07-13T01:52:53;2.37;;;2.13;;
60847;SDS011;46681;47.696;9.140;2023-07-13T01:55:20;2.20;;;2.07;;
60847;SDS011;46681;47.696;9.140;2023-07-13T01:57:50;2.40;;;2.20;;
60847;SDS011;46681;47.696;9.140;2023-07-13T02:00:20;2.40;;;2.20;;
60847;SDS011;46681;47.696;9.140;2023-07-13T02:02:48;2.00;;;1.90;;
60847;SDS011;46681;47.696;9.140;2023-07-13T02:05:18;2.67;;;2.20;;
60847;SDS011;46681;47.696;9.140;2023-07-13T02:07:44;3.00;;;2.10;;
60847;SDS011;46681;47.696;9.140;2023-07-13T02:10:13;2.23;;;2.03;;
60847;SDS011;46681;47.696;9.140;2023-07-13T02:12:39;2.33;;;2.10;;
60847;SDS011;46681;47.696;9.140;2023-07-13T02:15:05;3.40;;;2.20;;
60847;SDS011;46681;47.696;9.140;2023-07-13T02:17:33;2.67;;;2.47;;
60847;SDS011;46681;47.696;9.140;2023-07-13T02:19:59;2.37;;;2.20;;
60847;SDS011;46681;47.696;9.140;2023-07-13T02:22:25;2.50;;;2.30;;
60847;SDS011;46681;47.696;9.140;2023-07-13T02:24:51;2.60;;;2.40;;
60847;SDS011;46681;47.696;9.140;2023-07-13T02:27:16;2.00;;;1.90;;
60847;SDS011;46681;47.696;9.140;2023-07-13T02:29:42;2.63;;;2.43;;
60847;SDS011;46681;47.696;9.140;2023-07-13T02:32:08;2.60;;;2.33;;
60847;SDS011;46681;47.696;9.140;2023-07-13T02:34:33;2.60;;;2.40;;
60847;SDS011;46681;47.696;9.140;2023-07-13T02:36:59;2.00;;;1.90;;
60847;SDS011;46681;47.696;9.140;2023-07-13T02:39:25;2.27;;;2.17;;
60847;SDS011;46681;47.696;9.140;2023-07-13T02:41:50;2.20;;;2.00;;
60847;SDS011;46681;47.696;9.140;2023-07-13T02:44:16;2.50;;;2.30;;
60847;SDS011;46681;47.696;9.140;2023-07-13T02:46:41;2.67;;;2.30;;
60847;SDS011;46681;47.696;9.140;2023-07-13T02:49:07;2.50;;;2.30;;
60847;SDS011;46681;47.696;9.140;2023-07-13T02:51:33;2.00;;;1.90;;
60847;SDS011;46681;47.696;9.140;2023-07-13T02:53:58;2.10;;;2.00;;
60847;SDS011;46681;47.696;9.140;2023-07-13T02:56:35;3.07;;;2.20;;
60847;SDS011;46681;47.696;9.140;2023-07-13T02:59:02;2.87;;;2.20;;
60847;SDS011;46681;47.696;9.140;2023-07-13T03:01:32;3.37;;;2.23;;
60847;SDS011;46681;47.696;9.140;2023-07-13T03:03:59;2.77;;;2.10;;
60847;SDS011;46681;47.696;9.140;2023-07-13T03:06:25;2.70;;;2.33;;
60847;SDS011;46681;47.696;9.140;2023-07-13T03:08:50;2.20;;;2.10;;
60847;SDS011;46681;47.696;9.140;2023-07-13T03:11:18;2.03;;;1.93;;
60847;SDS011;46681;47.696;9.140;2023-07-13T03:13:44;3.23;;;2.03;;
60847;SDS011;46681;47.696;9.140;2023-07-13T03:16:10;2.30;;;2.10;;
60847;SDS011;46681;47.696;9.140;2023-07-13T03:18:40;2.20;;;2.10;;
60847;SDS011;46681;47.696;9.140;2023-07-13T03:21:05;2.33;;;2.13;;
60847;SDS011;46681;47.696;9.140;2023-07-13T03:23:33;6.07;;;2.60;;
60847;SDS011;46681;47.696;9.140;2023-07-13T03:26:09;3.80;;;2.17;;
60847;SDS011;46681;47.696;9.140;2023-07-13T03:28:36;2.17;;;1.90;;
60847;SDS011;46681;47.696;9.140;2023-07-13T03:31:15;3.27;;;2.10;;
60847;SDS011;46681;47.696;9.140;2023-07-13T03:33:42;2.40;;;2.17;;
60847;SDS011;46681;47.696;9.140;2023-07-13T03:36:14;2.20;;;2.10;;
60847;SDS011;46681;47.696;9.140;2023-07-13T03:38:55;3.37;;;2.20;;
60847;SDS011;46681;47.696;9.140;2023-07-13T03:41:22;1.80;;;1.70;;
60847;SDS011;46681;47.696;9.140;2023-07-13T03:43:52;2.20;;;2.10;;
60847;SDS011;46681;47.696;9.140;2023-07-13T03:46:18;2.53;;;2.23;;
60847;SDS011;46681;47.696;9.140;2023-07-13T03:48:45;2.27;;;2.10;;
60847;SDS011;46681;47.696;9.140;2023-07-13T03:51:15;2.30;;;1.90;;
60847;SDS011;46681;47.696;9.140;2023-07-13T03:53:42;2.83;;;2.20;;
60847;SDS011;46681;47.696;9.140;2023-07-13T03:56:16;2.33;;;2.13;;
60847;SDS011;46681;47.696;9.140;2023-07-13T03:58:49;2.20;;;2.10;;
60847;SDS011;46681;47.696;9.140;2023-07-13T04:01:19;2.80;;;2.33;;
60847;SDS011;46681;47.696;9.140;2023-07-13T04:03:49;3.80;;;2.20;;
60847;SDS011;46681;47.696;9.140;2023-07-13T04:06:16;4.17;;;2.20;;
60847;SDS011;46681;47.696;9.140;2023-07-13T04:08:56;2.43;;;2.20;;
60847;SDS011;46681;47.696;9.140;2023-07-13T04:11:25;2.30;;;2.10;;
60847;SDS011;46681;47.696;9.140;2023-07-13T04:13:53;2.70;;;1.90;;
60847;SDS011;46681;47.696;9.140;2023-07-13T04:16:19;2.83;;;1.97;;
60847;SDS011;46681;47.696;9.140;2023-07-13T04:18:51;3.10;;;2.30;;
60847;SDS011;46681;47.696;9.140;2023-07-13T04:21:22;2.23;;;2.03;;
60847;SDS011;46681;47.696;9.140;2023-07-13T04:23:48;2.20;;;2.00;;
60847;SDS011;46681;47.696;9.140;2023-07-13T04:26:17;3.17;;;2.40;;
60847;SDS011;46681;47.696;9.140;2023-07-13T04:28:42;6.53;;;3.30;;
60847;SDS011;46681;47.696;9.140;2023-07-13T04:31:08;6.43;;;2.90;;
60847;SDS011;46681;47.696;9.140;2023-07-13T04:33:39;4.70;;;2.60;;
60847;SDS011;46681;47.696;9.140;2023-07-13T04:36:05;6.90;;;2.83;;
60847;SDS011;46681;47.696;9.140;2023-07-13T04:38:31;5.87;;;3.10;;
60847;SDS011;46681;47.696;9.140;2023-07-13T04:40:59;5.90;;;2.67;;
60847;SDS011;46681;47.696;9.140;2023-07-13T04:43:27;5.73;;;2.60;;
60847;SDS011;46681;47.696;9.140;2023-07-13T04:45:55;3.10;;;2.43;;
60847;SDS011;46681;47.696;9.140;2023-07-13T04:48:37;4.47;;;2.77;;
60847;SDS011;46681;47.696;9.140;2023-07-13T04:51:02;3.00;;;2.27;;
60847;SDS011;46681;47.696;9.140;2023-07-13T04:53:31;2.60;;;2.40;;
60847;SDS011;46681;47.696;9.140;2023-07-13T04:56:02;4.13;;;2.43;;
60847;SDS011;46681;47.696;9.140;2023-07-13T04:58:30;3.10;;;2.80;;
60847;SDS011;46681;47.696;9.140;2023-07-13T05:01:03;2.93;;;2.63;;
60847;SDS011;46681;47.696;9.140;2023-07-13T05:03:31;3.60;;;2.10;;
60847;SDS011;46681;47.696;9.140;2023-07-13T05:06:01;2.87;;;2.40;;
60847;SDS011;46681;47.696;9.140;2023-07-13T05:08:36;6.40;;;2.60;;
60847;SDS011;46681;47.696;9.140;2023-07-13T05:11:04;3.20;;;2.40;;
60847;SDS011;46681;47.696;9.140;2023-07-13T05:13:30;2.33;;;2.20;;
60847;SDS011;46681;47.696;9.140;2023-07-13T05:16:00;3.33;;;2.43;;
60847;SDS011;46681;47.696;9.140;2023-07-13T05:18:36;2.60;;;2.37;;
60847;SDS011;46681;47.696;9.140;2023-07-13T05:21:06;2.80;;;2.60;;
60847;SDS011;46681;47.696;9.140;2023-07-13T05:23:38;2.50;;;2.33;;
60847;SDS011;46681;47.696;9.140;2023-07-13T05:26:06;2.97;;;2.73;;
60847;SDS011;46681;47.696;9.140;2023-07-13T05:28:31;5.23;;;2.60;;
60847;SDS011;46681;47.696;9.140;2023-07-13T05:31:03;4.50;;;2.60;;
60847;SDS011;46681;47.696;9.140;2023-07-13T05:33:29;3.83;;;2.13;;
60847;SDS011;46681;47.696;9.140;2023-07-13T05:35:56;3.33;;;2.67;;
60847;SDS011;46681;47.696;9.140;2023-07-13T05:38:32;4.07;;;2.50;;
60847;SDS011;46681;47.696;9.140;2023-07-13T05:41:02;4.40;;;2.77;;
60847;SDS011;46681;47.696;9.140;2023-07-13T05:43:29;4.03;;;2.60;;
60847;SDS011;46681;47.696;9.140;2023-07-13T05:46:01;4.37;;;2.23;;
60847;SDS011;46681;47.696;9.140;2023-07-13T05:48:36;3.57;;;2.40;;
60847;SDS011;46681;47.696;9.140;2023-07-13T05:51:04;3.33;;;2.67;;
60847;SDS011;46681;47.696;9.140;2023-07-13T05:53:49;3.17;;;2.30;;
60847;SDS011;46681;47.696;9.140;2023-07-13T05:56:20;2.50;;;2.30;;
60847;SDS011;46681;47.696;9.140;2023-07-13T05:58:57;2.90;;;2.60;;
60847;SDS011;46681;47.696;9.140;2023-07-13T06:01:29;3.40;;;2.30;;
60847;SDS011;46681;47.696;9.140;2023-07-13T06:03:59;2.57;;;2.37;;
60847;SDS011;46681;47.696;9.140;2023-07-13T06:06:32;2.70;;;2.50;;
60847;SDS011;46681;47.696;9.140;2023-07-13T06:08:57;3.10;;;2.40;;
60847;SDS011;46681;47.696;9.140;2023-07-13T06:11:42;2.53;;;2.33;;
60847;SDS011;46681;47.696;9.140;2023-07-13T06:14:10;8.57;;;2.60;;
60847;SDS011;46681;47.696;9.140;2023-07-13T06:16:36;3.87;;;2.77;;
60847;SDS011;46681;47.696;9.140;2023-07-13T06:19:08;6.00;;;2.77;;
60847;SDS011;46681;47.696;9.140;2023-07-13T06:21:38;4.07;;;3.13;;
60847;SDS011;46681;47.696;9.140;2023-07-13T06:24:13;5.47;;;2.80;;
60847;SDS011;46681;47.696;9.140;2023-07-13T06:26:52;6.90;;;3.00;;
60847;SDS011;46681;47.696;9.140;2023-07-13T06:29:19;4.50;;;2.87;;
60847;SDS011;46681;47.696;9.140;2023-07-13T06:31:47;4.63;;;3.10;;
60847;SDS011;46681;47.696;9.140;2023-07-13T06:34:23;4.40;;;2.90;;
60847;SDS011;46681;47.696;9.140;2023-07-13T06:36:51;5.93;;;3.00;;
60847;SDS011;46681;47.696;9.140;2023-07-13T06:39:18;5.60;;;2.87;;
60847;SDS011;46681;47.696;9.140;2023-07-13T06:41:51;2.83;;;2.57;;
60847;SDS011;46681;47.696;9.140;2023-07-13T06:44:33;3.53;;;2.40;;
60847;SDS011;46681;47.696;9.140;2023-07-13T06:47:07;3.07;;;2.47;;
60847;SDS011;46681;47.696;9.140;2023-07-13T06:50:00;4.63;;;2.67;;
60847;SDS011;46681;47.696;9.140;2023-07-13T06:52:26;4.80;;;2.90;;
60847;SDS011;46681;47.696;9.140;2023-07-13T06:54:55;3.23;;;2.93;;
60847;SDS011;46681;47.696;9.140;2023-07-13T06:57:22;3.27;;;2.47;;
60847;SDS011;46681;47.696;9.140;2023-07-13T06:59:57;2.93;;;2.60;;
60847;SDS011;46681;47.696;9.140;2023-07-13T07:02:27;3.00;;;2.70;;
60847;SDS011;46681;47.696;9.140;2023-07-13T07:04:53;3.83;;;2.63;;
60847;SDS011;46681;47.696;9.140;2023-07-13T07:07:29;3.43;;;2.20;;
60847;SDS011;46681;47.696;9.140;2023-07-13T07:10:02;2.80;;;2.60;;
60847;SDS011;46681;47.696;9.140;2023-07-13T07:12:33;4.53;;;2.67;;
60847;SDS011;46681;47.696;9.140;2023-07-13T07:15:12;3.43;;;2.87;;
60847;SDS011;46681;47.696;9.140;2023-07-13T07:17:38;3.97;;;2.50;;
60847;SDS011;46681;47.696;9.140;2023-07-13T07:20:04;2.30;;;2.17;;
60847;SDS011;46681;47.696;9.140;2023-07-13T07:22:42;3.83;;;2.57;;
60847;SDS011;46681;47.696;9.140;2023-07-13T07:25:18;2.60;;;2.23;;
60847;SDS011;46681;47.696;9.140;2023-07-13T07:27:53;3.27;;;2.43;;
60847;SDS011;46681;47.696;9.140;2023-07-13T07:30:27;2.43;;;2.10;;
60847;SDS011;46681;47.696;9.140;2023-07-13T07:32:58;2.30;;;2.10;;
60847;SDS011;46681;47.696;9.140;2023-07-13T07:35:27;2.10;;;2.00;;
60847;SDS011;46681;47.696;9.140;2023-07-13T07:37:54;3.30;;;2.17;;
60847;SDS011;46681;47.696;9.140;2023-07-13T07:40:27;3.00;;;2.47;;
60847;SDS011;46681;47.696;9.140;2023-07-13T07:43:02;1.97;;;1.83;;
60847;SDS011;46681;47.696;9.140;2023-07-13T07:45:28;2.40;;;2.20;;
60847;SDS011;46681;47.696;9.140;2023-07-13T07:47:57;2.67;;;2.10;;
60847;SDS011;46681;47.696;9.140;2023-07-13T07:50:27;3.53;;;2.00;;
60847;SDS011;46681;47.696;9.140;2023-07-13T07:56:12;3.67;;;2.30;;
60847;SDS011;46681;47.696;9.140;2023-07-13T07:58:51;3.17;;;1.80;;
60847;SDS011;46681;47.696;9.140;2023-07-13T08:01:44;2.33;;;1.97;;
60847;SDS011;46681;47.696;9.140;2023-07-13T08:07:13;3.17;;;2.10;;
60847;SDS011;46681;47.696;9.140;2023-07-13T08:09:58;2.60;;;1.90;;
60847;SDS011;46681;47.696;9.140;2023-07-13T08:12:56;3.03;;;1.73;;
60847;SDS011;46681;47.696;9.140;2023-07-13T08:15:50;2.07;;;1.83;;
60847;SDS011;46681;47.696;9.140;2023-07-13T08:21:53;1.80;;;1.70;;
60847;SDS011;46681;47.696;9.140;2023-07-13T08:24:22;2.47;;;1.93;;
60847;SDS011;46681;47.696;9.140;2023-07-13T08:27:03;2.30;;;2.10;;
60847;SDS011;46681;47.696;9.140;2023-07-13T08:29:42;1.70;;;1.60;;
60847;SDS011;46681;47.696;9.140;2023-07-13T08:32:15;1.83;;;1.50;;
60847;SDS011;46681;47.696;9.140;2023-07-13T08:34:44;1.63;;;1.53;;
60847;SDS011;46681;47.696;9.140;2023-07-13T08:37:16;2.30;;;1.83;;
60847;SDS011;46681;47.696;9.140;2023-07-13T08:39:50;1.80;;;1.70;;
60847;SDS011;46681;47.696;9.140;2023-07-13T08:45:22;2.07;;;1.50;;
60847;SDS011;46681;47.696;9.140;2023-07-13T08:48:11;3.33;;;1.70;;
60847;SDS011;46681;47.696;9.140;2023-07-13T08:53:38;2.10;;;1.60;;
60847;SDS011;46681;47.696;9.140;2023-07-13T08:56:22;2.90;;;1.73;;
60847;SDS011;46681;47.696;9.140;2023-07-13T09:11:21;1.90;;;1.70;;
60847;SDS011;46681;47.696;9.140;2023-07-13T09:17:15;1.70;;;1.60;;
60847;SDS011;46681;47.696;9.140;2023-07-13T09:20:48;2.67;;;1.83;;
60847;SDS011;46681;47.696;9.140;2023-07-13T09:23:56;2.73;;;1.33;;
60847;SDS011;46681;47.696;9.140;2023-07-13T09:26:44;2.20;;;1.40;;
60847;SDS011;46681;47.696;9.140;2023-07-13T09:29:22;7.60;;;1.60;;
60847;SDS011;46681;47.696;9.140;2023-07-13T09:32:33;3.67;;;1.60;;
60847;SDS011;46681;47.696;9.140;2023-07-13T09:35:26;1.53;;;1.40;;
60847;SDS011;46681;47.696;9.140;2023-07-13T09:38:11;3.77;;;1.53;;
60847;SDS011;46681;47.696;9.140;2023-07-13T09:53:01;1.60;;;1.30;;
60847;SDS011;46681;47.696;9.140;2023-07-13T09:55:47;2.13;;;1.43;;
60847;SDS011;46681;47.696;9.140;2023-07-13T10:01:57;2.20;;;1.50;;
60847;SDS011;46681;47.696;9.140;2023-07-13T10:05:06;1.53;;;1.33;;
60847;SDS011;46681;47.696;9.140;2023-07-13T10:07:56;1.80;;;1.50;;
60847;SDS011;46681;47.696;9.140;2023-07-13T10:16:32;3.30;;;1.40;;
60847;SDS011;46681;47.696;9.140;2023-07-13T10:22:21;1.70;;;1.60;;
60847;SDS011;46681;47.696;9.140;2023-07-13T10:43:37;1.47;;;1.33;;
60847;SDS011;46681;47.696;9.140;2023-07-13T10:58:48;5.63;;;1.37;;
60847;SDS011;46681;47.696;9.140;2023-07-13T11:35:43;3.20;;;1.70;;
60847;SDS011;46681;47.696;9.140;2023-07-13T11:41:51;4.07;;;2.00;;
60847;SDS011;46681;47.696;9.140;2023-07-13T12:18:54;3.40;;;1.50;;
60847;SDS011;46681;47.696;9.140;2023-07-13T12:21:41;2.30;;;1.73;;
60847;SDS011;46681;47.696;9.140;2023-07-13T12:25:03;2.17;;;1.50;;
60847;SDS011;46681;47.696;9.140;2023-07-13T12:27:40;2.17;;;1.60;;
60847;SDS011;46681;47.696;9.140;2023-07-13T12:36:17;5.73;;;1.57;;
60847;SDS011;46681;47.696;9.140;2023-07-13T12:38:45;3.97;;;1.50;;
60847;SDS011;46681;47.696;9.140;2023-07-13T12:50:51;3.17;;;1.53;;
60847;SDS011;46681;47.696;9.140;2023-07-13T12:54:05;3.63;;;1.67;;
60847;SDS011;46681;47.696;9.140;2023-07-13T12:57:08;3.27;;;1.60;;
60847;SDS011;46681;47.696;9.140;2023-07-13T13:03:29;2.27;;;1.43;;
60847;SDS011;46681;47.696;9.140;2023-07-13T13:12:00;3.43;;;1.50;;
60847;SDS011;46681;47.696;9.140;2023-07-13T13:20:48;2.03;;;1.43;;
60847;SDS011;46681;47.696;9.140;2023-07-13T13:27:12;1.23;;;1.13;;
60847;SDS011;46681;47.696;9.140;2023-07-13T13:33:19;1.93;;;1.47;;
60847;SDS011;46681;47.696;9.140;2023-07-13T13:48:34;1.77;;;1.33;;
60847;SDS011;46681;47.696;9.140;2023-07-13T13:51:29;2.37;;;1.63;;
60847;SDS011;46681;47.696;9.140;2023-07-13T13:54:12;2.23;;;1.37;;
60847;SDS011;46681;47.696;9.140;2023-07-13T14:06:15;1.93;;;1.53;;
60847;SDS011;46681;47.696;9.140;2023-07-13T14:12:22;1.83;;;1.47;;
60847;SDS011;46681;47.696;9.140;2023-07-13T14:15:20;3.07;;;1.53;;
60847;SDS011;46681;47.696;9.140;2023-07-13T14:18:04;2.03;;;1.33;;
60847;SDS011;46681;47.696;9.140;2023-07-13T14:26:37;1.43;;;1.33;;
60847;SDS011;46681;47.696;9.140;2023-07-13T14:29:35;3.23;;;1.33;;
60847;SDS011;46681;47.696;9.140;2023-07-13T14:32:46;1.37;;;1.27;;
60847;SDS011;46681;47.696;9.140;2023-07-13T14:35:41;2.53;;;1.40;;
60847;SDS011;46681;47.696;9.140;2023-07-13T14:41:15;1.50;;;1.27;;
60847;SDS011;46681;47.696;9.140;2023-07-13T14:47:11;1.53;;;1.27;;
60847;SDS011;46681;47.696;9.140;2023-07-13T15:05:12;1.60;;;1.50;;
60847;SDS011;46681;47.696;9.140;2023-07-13T15:14:33;1.27;;;1.27;;
60847;SDS011;46681;47.696;9.140;2023-07-13T15:17:39;2.03;;;1.27;;
60847;SDS011;46681;47.696;9.140;2023-07-13T15:39:19;1.33;;;1.23;;
60847;SDS011;46681;47.696;9.140;2023-07-13T15:44:50;1.40;;;1.30;;
60847;SDS011;46681;47.696;9.140;2023-07-13T16:12:15;1.83;;;1.20;;
60847;SDS011;46681;47.696;9.140;2023-07-13T16:20:40;1.97;;;1.33;;
60847;SDS011;46681;47.696;9.140;2023-07-13T16:26:48;1.30;;;1.20;;
60847;SDS011;46681;47.696;9.140;2023-07-13T16:29:48;0.93;;;0.93;;
60847;SDS011;46681;47.696;9.140;2023-07-13T16:36:14;2.70;;;1.70;;
60847;SDS011;46681;47.696;9.140;2023-07-13T16:39:50;1.63;;;1.10;;
60847;SDS011;46681;47.696;9.140;2023-07-13T16:43:08;2.27;;;1.10;;
60847;SDS011;46681;47.696;9.140;2023-07-13T16:46:22;1.53;;;1.37;;
60847;SDS011;46681;47.696;9.140;2023-07-13T16:52:18;1.47;;;1.10;;
60847;SDS011;46681;47.696;9.140;2023-07-13T16:55:22;2.77;;;1.20;;
60847;SDS011;46681;47.696;9.140;2023-07-13T17:04:04;1.70;;;1.30;;
60847;SDS011;46681;47.696;9.140;2023-07-13T17:07:20;0.90;;;0.90;;
60847;SDS011;46681;47.696;9.140;2023-07-13T17:09:46;1.13;;;1.03;;
60847;SDS011;46681;47.696;9.140;2023-07-13T17:12:13;0.90;;;0.90;;
60847;SDS011;46681;47.696;9.140;2023-07-13T17:14:56;2.50;;;1.00;;
60847;SDS011;46681;47.696;9.140;2023-07-13T17:17:39;1.63;;;0.83;;
60847;SDS011;46681;47.696;9.140;2023-07-13T17:23:13;0.90;;;0.90;;
60847;SDS011;46681;47.696;9.140;2023-07-13T17:26:52;2.70;;;1.10;;
60847;SDS011;46681;47.696;9.140;2023-07-13T17:29:27;1.40;;;1.00;;
60847;SDS011;46681;47.696;9.140;2023-07-13T17:32:13;1.20;;;1.07;;
60847;SDS011;46681;47.696;9.140;2023-07-13T17:41:37;1.17;;;0.97;;
60847;SDS011;46681;47.696;9.140;2023-07-13T17:47:37;1.10;;;1.00;;
60847;SDS011;46681;47.696;9.140;2023-07-13T17:59:46;1.03;;;1.03;;
60847;SDS011;46681;47.696;9.140;2023-07-13T18:06:03;1.67;;;1.10;;
60847;SDS011;46681;47.696;9.140;2023-07-13T18:12:26;1.10;;;0.90;;
60847;SDS011;46681;47.696;9.140;2023-07-13T18:17:59;2.40;;;1.10;;
60847;SDS011;46681;47.696;9.140;2023-07-13T18:20:46;1.00;;;1.00;;
60847;SDS011;46681;47.696;9.140;2023-07-13T18:23:28;1.07;;;1.07;;
60847;SDS011;46681;47.696;9.140;2023-07-13T18:26:12;1.00;;;1.00;;
60847;SDS011;46681;47.696;9.140;2023-07-13T18:29:24;1.30;;;1.10;;
60847;SDS011;46681;47.696;9.140;2023-07-13T18:32:46;0.70;;;0.70;;
60847;SDS011;46681;47.696;9.140;2023-07-13T18:35:29;1.07;;;0.73;;
60847;SDS011;46681;47.696;9.140;2023-07-13T18:38:35;0.80;;;0.80;;
60847;SDS011;46681;47.696;9.140;2023-07-13T18:41:04;0.90;;;0.90;;
60847;SDS011;46681;47.696;9.140;2023-07-13T18:44:11;1.47;;;1.30;;
60847;SDS011;46681;47.696;9.140;2023-07-13T18:46:42;0.87;;;0.87;;
60847;SDS011;46681;47.696;9.140;2023-07-13T18:49:09;1.20;;;1.10;;
60847;SDS011;46681;47.696;9.140;2023-07-13T18:51:52;1.23;;;0.93;;
60847;SDS011;46681;47.696;9.140;2023-07-13T18:54:21;1.33;;;1.03;;
60847;SDS011;46681;47.696;9.140;2023-07-13T18:56:49;0.90;;;0.90;;
60847;SDS011;46681;47.696;9.140;2023-07-13T18:59:39;1.30;;;1.20;;
60847;SDS011;46681;47.696;9.140;2023-07-13T19:02:18;1.03;;;0.93;;
60847;SDS011;46681;47.696;9.140;2023-07-13T19:04:52;1.53;;;0.90;;
60847;SDS011;46681;47.696;9.140;2023-07-13T19:07:35;1.60;;;0.93;;
60847;SDS011;46681;47.696;9.140;2023-07-13T19:10:04;3.73;;;1.10;;
60847;SDS011;46681;47.696;9.140;2023-07-13T19:12:30;1.10;;;1.10;;
60847;SDS011;46681;47.696;9.140;2023-07-13T19:15:12;0.70;;;0.70;;
60847;SDS011;46681;47.696;9.140;2023-07-13T19:17:59;0.83;;;0.83;;
60847;SDS011;46681;47.696;9.140;2023-07-13T19:20:53;1.37;;;1.23;;
60847;SDS011;46681;47.696;9.140;2023-07-13T19:23:36;1.23;;;1.13;;
60847;SDS011;46681;47.696;9.140;2023-07-13T19:29:12;2.27;;;0.90;;
60847;SDS011;46681;47.696;9.140;2023-07-13T19:31:39;1.57;;;1.00;;
60847;SDS011;46681;47.696;9.140;2023-07-13T19:34:16;1.20;;;1.10;;
60847;SDS011;46681;47.696;9.140;2023-07-13T19:36:56;1.20;;;1.10;;
60847;SDS011;46681;47.696;9.140;2023-07-13T19:39:53;1.50;;;1.00;;
60847;SDS011;46681;47.696;9.140;2023-07-13T19:42:24;0.93;;;0.93;;
60847;SDS011;46681;47.696;9.140;2023-07-13T19:44:56;1.13;;;1.10;;
60847;SDS011;46681;47.696;9.140;2023-07-13T19:47:25;1.00;;;1.00;;
60847;SDS011;46681;47.696;9.140;2023-07-13T19:49:51;1.13;;;0.93;;
60847;SDS011;46681;47.696;9.140;2023-07-13T19:52:20;1.10;;;1.00;;
60847;SDS011;46681;47.696;9.140;2023-07-13T19:54:50;2.07;;;1.00;;
60847;SDS011;46681;47.696;9.140;2023-07-13T19:57:22;3.20;;;1.20;;
60847;SDS011;46681;47.696;9.140;2023-07-13T19:59:55;1.20;;;1.10;;
60847;SDS011;46681;47.696;9.140;2023-07-13T20:02:22;2.27;;;1.20;;
60847;SDS011;46681;47.696;9.140;2023-07-13T20:04:52;1.10;;;1.00;;
60847;SDS011;46681;47.696;9.140;2023-07-13T20:07:18;1.10;;;1.00;;
60847;SDS011;46681;47.696;9.140;2023-07-13T20:09:50;1.33;;;1.20;;
60847;SDS011;46681;47.696;9.140;2023-07-13T20:12:21;0.90;;;0.90;;
60847;SDS011;46681;47.696;9.140;2023-07-13T20:14:49;1.80;;;1.00;;
60847;SDS011;46681;47.696;9.140;2023-07-13T20:19:54;2.20;;;1.20;;
60847;SDS011;46681;47.696;9.140;2023-07-13T20:22:20;1.77;;;1.37;;
60847;SDS011;46681;47.696;9.140;2023-07-13T20:24:46;1.53;;;1.10;;
60847;SDS011;46681;47.696;9.140;2023-07-13T20:27:13;1.43;;;1.33;;
60847;SDS011;46681;47.696;9.140;2023-07-13T20:29:41;3.63;;;1.30;;
60847;SDS011;46681;47.696;9.140;2023-07-13T20:32:09;1.20;;;1.10;;
60847;SDS011;46681;47.696;9.140;2023-07-13T20:34:37;2.20;;;0.90;;
60847;SDS011;46681;47.696;9.140;2023-07-13T20:39:58;0.90;;;0.90;;
60847;SDS011;46681;47.696;9.140;2023-07-13T20:42:27;1.83;;;1.00;;
60847;SDS011;46681;47.696;9.140;2023-07-13T20:44:55;1.27;;;0.83;;
60847;SDS011;46681;47.696;9.140;2023-07-13T20:47:23;1.70;;;1.00;;
60847;SDS011;46681;47.696;9.140;2023-07-13T20:49:50;1.00;;;0.90;;
60847;SDS011;46681;47.696;9.140;2023-07-13T20:52:16;2.00;;;1.23;;
60847;SDS011;46681;47.696;9.140;2023-07-13T20:54:42;1.20;;;1.10;;
60847;SDS011;46681;47.696;9.140;2023-07-13T20:57:07;1.60;;;1.30;;
60847;SDS011;46681;47.696;9.140;2023-07-13T20:59:33;2.27;;;1.17;;
60847;SDS011;46681;47.696;9.140;2023-07-13T21:01:59;1.83;;;1.00;;
60847;SDS011;46681;47.696;9.140;2023-07-13T21:04:25;1.00;;;1.00;;
60847;SDS011;46681;47.696;9.140;2023-07-13T21:06:51;2.77;;;1.20;;
60847;SDS011;46681;47.696;9.140;2023-07-13T21:09:17;1.03;;;1.03;;
60847;SDS011;46681;47.696;9.140;2023-07-13T21:11:46;1.40;;;0.90;;
60847;SDS011;46681;47.696;9.140;2023-07-13T21:14:12;0.90;;;0.90;;
60847;SDS011;46681;47.696;9.140;2023-07-13T21:16:41;2.83;;;0.90;;
60847;SDS011;46681;47.696;9.140;2023-07-13T21:19:10;1.13;;;1.00;;
60847;SDS011;46681;47.696;9.140;2023-07-13T21:21:37;1.13;;;1.00;;
60847;SDS011;46681;47.696;9.140;2023-07-13T21:24:02;1.27;;;1.10;;
60847;SDS011;46681;47.696;9.140;2023-07-13T21:26:29;1.33;;;1.00;;
60847;SDS011;46681;47.696;9.140;2023-07-13T21:28:58;0.90;;;0.90;;
60847;SDS011;46681;47.696;9.140;2023-07-13T21:31:28;3.07;;;1.20;;
60847;SDS011;46681;47.696;9.140;2023-07-13T21:34:00;2.27;;;1.13;;
60847;SDS011;46681;47.696;9.140;2023-07-13T21:36:46;2.97;;;1.10;;
60847;SDS011;46681;47.696;9.140;2023-07-13T21:39:13;1.87;;;0.97;;
60847;SDS011;46681;47.696;9.140;2023-07-13T21:41:43;1.90;;;1.00;;